createdAt,value
2023-02-24T00:00:53.852Z,21.65
2023-02-24T00:03:24.308Z,21.60
2023-02-24T00:05:55.420Z,21.57
2023-02-24T00:08:25.424Z,21.54
2023-02-24T00:10:55.944Z,21.45
2023-02-24T00:13:26.053Z,21.36
2023-02-24T00:16:04.823Z,21.33
2023-02-24T00:18:36.134Z,21.34
2023-02-24T00:21:16.076Z,21.36
2023-02-24T00:23:48.578Z,21.44
2023-02-24T00:26:19.560Z,21.40
2023-02-24T00:28:50.218Z,21.45
2023-02-24T00:31:22.174Z,21.51
2023-02-24T00:33:53.600Z,21.44
2023-02-24T00:36:26.762Z,21.40
2023-02-24T00:39:01.739Z,21.40
2023-02-24T00:41:34.460Z,21.40
2023-02-24T00:44:09.697Z,21.33
2023-02-24T00:46:46.770Z,21.24
2023-02-24T00:49:19.703Z,21.11
2023-02-24T00:51:51.198Z,21.00
2023-02-24T00:54:21.690Z,20.90
2023-02-24T00:56:52.292Z,20.90
2023-02-24T00:59:25.680Z,20.91
2023-02-24T01:01:57.047Z,20.85
2023-02-24T01:04:30.463Z,20.95
2023-02-24T01:07:03.853Z,21.07
2023-02-24T01:09:35.915Z,21.30
2023-02-24T01:12:26.959Z,21.49
2023-02-24T01:14:56.948Z,21.55
2023-02-24T01:17:27.021Z,21.50
2023-02-24T01:20:01.451Z,21.42
2023-02-24T01:22:31.865Z,21.22
2023-02-24T01:25:02.567Z,21.10
2023-02-24T01:27:32.714Z,21.08
2023-02-24T01:30:06.071Z,21.09
2023-02-24T01:32:37.484Z,21.20
2023-02-24T01:35:08.899Z,21.34
2023-02-24T01:37:39.407Z,21.32
2023-02-24T01:40:19.190Z,21.57
2023-02-24T01:42:50.524Z,21.61
2023-02-24T01:45:29.579Z,21.68
2023-02-24T01:48:04.807Z,21.64
2023-02-24T01:50:37.475Z,21.65
2023-02-24T01:53:09.779Z,21.72
2023-02-24T01:55:48.392Z,21.85
2023-02-24T01:58:26.143Z,21.90
2023-02-24T02:00:58.962Z,21.91
2023-02-24T02:03:32.815Z,21.99
2023-02-24T02:06:07.571Z,22.04
2023-02-24T02:08:40.443Z,22.23
2023-02-24T02:11:15.359Z,22.13
2023-02-24T02:13:51.166Z,22.02
2023-02-24T02:16:46.539Z,22.10
2023-02-24T02:19:34.577Z,22.14
2023-02-24T02:22:24.562Z,22.30
2023-02-24T02:25:06.716Z,22.31
2023-02-24T02:27:52.856Z,22.26
2023-02-24T02:30:34.577Z,22.24
2023-02-24T02:33:09.066Z,22.31
2023-02-24T02:35:51.104Z,22.34
2023-02-24T02:38:27.322Z,22.38
2023-02-24T02:41:13.883Z,22.37
2023-02-24T02:43:54.688Z,22.40
2023-02-24T02:46:38.748Z,22.40
2023-02-24T02:49:23.138Z,22.42
2023-02-24T02:52:00.921Z,22.46
2023-02-24T02:55:04.807Z,22.28
2023-02-24T02:57:38.839Z,22.04
2023-02-24T03:00:25.583Z,22.08
2023-02-24T03:03:04.706Z,21.78
2023-02-24T03:05:48.109Z,21.77
2023-02-24T03:08:24.237Z,21.84
2023-02-24T03:10:57.215Z,21.81
2023-02-24T03:13:31.302Z,21.76
2023-02-24T03:16:05.024Z,21.75
2023-02-24T03:18:40.714Z,21.77
2023-02-24T03:21:18.271Z,21.82
2023-02-24T03:23:52.336Z,21.82
2023-02-24T03:26:31.116Z,21.80
2023-02-24T03:29:13.557Z,21.72
2023-02-24T03:31:45.967Z,21.61
2023-02-24T03:34:29.991Z,21.49
2023-02-24T03:37:01.004Z,21.46
2023-02-24T03:39:31.669Z,21.41
2023-02-24T03:42:21.986Z,21.34
2023-02-24T03:44:52.265Z,21.22
2023-02-24T03:47:23.108Z,21.28
2023-02-24T03:49:53.414Z,21.33
2023-02-24T03:53:03.975Z,21.35
2023-02-24T03:56:18.071Z,21.33
2023-02-24T03:58:54.619Z,21.30
2023-02-24T04:01:46.175Z,21.19
2023-02-24T04:04:39.213Z,21.15
2023-02-24T04:07:38.980Z,21.17
2023-02-24T04:10:16.632Z,21.13
2023-02-24T04:12:50.422Z,21.05
2023-02-24T04:15:33.337Z,20.76
2023-02-24T04:18:10.578Z,20.60
2023-02-24T04:20:42.762Z,20.61
2023-02-24T04:23:18.134Z,20.62
2023-02-24T04:25:53.901Z,20.63
2023-02-24T04:28:26.642Z,20.78
2023-02-24T04:31:06.949Z,20.85
2023-02-24T04:33:39.778Z,20.68
2023-02-24T04:36:13.980Z,20.54
2023-02-24T04:38:47.003Z,20.63
2023-02-24T04:41:24.172Z,20.68
2023-02-24T04:43:54.384Z,20.78
2023-02-24T04:46:24.940Z,20.79
2023-02-24T04:48:55.415Z,20.63
2023-02-24T04:51:25.858Z,20.47
2023-02-24T04:53:56.545Z,20.36
2023-02-24T04:56:27.030Z,20.30
2023-02-24T04:58:58.069Z,20.31
2023-02-24T05:01:28.520Z,20.32
2023-02-24T05:03:58.663Z,20.28
2023-02-24T05:06:29.187Z,20.31
2023-02-24T05:08:59.891Z,20.45
2023-02-24T05:11:35.941Z,20.49
2023-02-24T05:14:06.088Z,20.47
2023-02-24T05:16:36.577Z,20.40
2023-02-24T05:19:24.903Z,20.27
2023-02-24T05:21:55.569Z,20.30
2023-02-24T05:24:30.687Z,20.34
2023-02-24T05:27:01.580Z,20.32
2023-02-24T05:29:35.687Z,20.33
2023-02-24T05:32:06.838Z,20.28
2023-02-24T05:34:37.022Z,20.13
2023-02-24T05:37:11.606Z,20.05
2023-02-24T05:39:42.194Z,20.13
2023-02-24T05:42:12.830Z,20.30
2023-02-24T05:44:42.960Z,20.42
2023-02-24T05:47:13.415Z,20.37
2023-02-24T05:49:44.974Z,20.29
2023-02-24T05:52:15.953Z,20.52
2023-02-24T05:54:46.477Z,20.43
2023-02-24T05:57:26.957Z,20.53
2023-02-24T05:59:57.157Z,20.48
2023-02-24T06:02:38.309Z,20.36
2023-02-24T06:05:09.994Z,20.27
2023-02-24T06:07:40.419Z,20.30
2023-02-24T06:10:12.125Z,20.28
2023-02-24T06:12:42.761Z,20.25
2023-02-24T06:15:13.682Z,20.32
2023-02-24T06:17:44.729Z,20.49
2023-02-24T06:20:16.809Z,20.56
2023-02-24T06:22:47.303Z,20.62
2023-02-24T06:25:19.670Z,20.60
2023-02-24T06:27:55.843Z,20.54
2023-02-24T06:30:28.437Z,20.48
2023-02-24T06:32:59.283Z,20.35
2023-02-24T06:35:29.533Z,20.28
2023-02-24T06:38:00.212Z,20.25
2023-02-24T06:40:30.327Z,20.21
2023-02-24T06:43:00.834Z,20.21
2023-02-24T06:45:32.147Z,20.17
2023-02-24T06:48:04.357Z,20.12
2023-02-24T06:50:34.518Z,20.10
2023-02-24T06:53:05.148Z,20.08
2023-02-24T06:55:36.730Z,20.14
2023-02-24T06:58:07.214Z,20.28
2023-02-24T07:00:40.180Z,20.26
2023-02-24T07:03:19.237Z,20.26
2023-02-24T07:05:55.393Z,20.23
2023-02-24T07:08:28.494Z,20.24
2023-02-24T07:11:01.064Z,20.31
2023-02-24T07:13:31.532Z,20.32
2023-02-24T07:16:08.145Z,20.33
2023-02-24T07:18:44.145Z,20.29
2023-02-24T07:21:14.231Z,20.27
2023-02-24T07:23:50.774Z,20.32
2023-02-24T07:26:25.213Z,20.40
2023-02-24T07:28:57.746Z,20.20
2023-02-24T07:31:27.949Z,20.17
2023-02-24T07:33:59.287Z,20.00
2023-02-24T07:36:31.262Z,20.04
2023-02-24T07:39:02.760Z,20.17
2023-02-24T07:41:32.896Z,20.22
2023-02-24T07:44:10.569Z,20.17
2023-02-24T07:46:41.946Z,20.12
2023-02-24T07:49:20.786Z,20.08
2023-02-24T07:51:54.025Z,20.15
2023-02-24T07:54:26.561Z,20.13
2023-02-24T07:57:00.187Z,20.08
2023-02-24T07:59:33.590Z,20.07
2023-02-24T08:02:08.932Z,20.16
2023-02-24T08:04:42.276Z,20.13
2023-02-24T08:07:15.529Z,20.11
2023-02-24T08:09:46.314Z,19.99
2023-02-24T08:12:24.196Z,19.97
2023-02-24T08:15:01.262Z,19.88
2023-02-24T08:17:31.449Z,19.83
2023-02-24T08:20:14.164Z,19.90
2023-02-24T08:22:47.946Z,20.00
2023-02-24T08:25:19.984Z,19.89
2023-02-24T08:28:07.285Z,19.76
2023-02-24T08:30:46.406Z,19.77
2023-02-24T08:33:23.322Z,19.83
2023-02-24T08:36:02.481Z,19.87
2023-02-24T08:38:41.382Z,19.88
2023-02-24T08:41:22.096Z,20.00
2023-02-24T08:43:52.504Z,20.01
2023-02-24T08:46:33.879Z,20.17
2023-02-24T08:49:03.996Z,20.28
2023-02-24T08:51:36.949Z,20.18
2023-02-24T08:54:16.487Z,20.08
2023-02-24T08:56:56.937Z,20.09
2023-02-24T08:59:42.175Z,20.09
2023-02-24T09:02:24.441Z,19.99
2023-02-24T09:04:58.916Z,19.87
2023-02-24T09:07:36.508Z,19.81
2023-02-24T09:10:19.816Z,19.86
2023-02-24T09:12:50.346Z,19.68
2023-02-24T09:15:21.753Z,19.74
2023-02-24T09:18:02.483Z,19.67
2023-02-24T09:20:58.621Z,19.69
2023-02-24T09:23:31.703Z,19.73
2023-02-24T09:26:12.163Z,19.69
2023-02-24T09:28:56.771Z,19.76
2023-02-24T09:31:41.624Z,19.85
2023-02-24T09:34:12.263Z,19.91
2023-02-24T09:37:02.638Z,19.87
2023-02-24T09:40:06.961Z,19.90
2023-02-24T09:42:47.535Z,20.00
2023-02-24T09:45:34.061Z,20.15
2023-02-24T09:48:26.561Z,20.23
2023-02-24T09:51:05.512Z,20.26
2023-02-24T09:53:41.720Z,20.25
2023-02-24T09:56:23.425Z,20.35
2023-02-24T09:59:14.630Z,20.51
2023-02-24T10:01:54.561Z,20.58
2023-02-24T10:05:17.223Z,20.63
2023-02-24T10:07:49.684Z,20.70
2023-02-24T10:10:30.782Z,20.78
2023-02-24T10:13:31.350Z,20.92
2023-02-24T10:16:07.236Z,21.07
2023-02-24T10:19:16.077Z,21.20
2023-02-24T10:22:24.234Z,21.21
2023-02-24T10:25:11.977Z,21.40
2023-02-24T10:28:16.150Z,21.40
2023-02-24T10:31:28.714Z,21.56
2023-02-24T10:34:07.322Z,21.58
2023-02-24T10:36:39.042Z,21.72
2023-02-24T10:39:27.207Z,21.84
2023-02-24T10:42:16.652Z,21.70
2023-02-24T10:45:03.232Z,21.84
2023-02-24T10:47:33.582Z,22.00
2023-02-24T10:50:05.540Z,22.05
2023-02-24T10:53:12.622Z,22.10
2023-02-24T10:55:49.019Z,22.10
2023-02-24T10:58:39.017Z,22.14
2023-02-24T11:01:44.826Z,22.12
2023-02-24T11:04:44.903Z,22.30
2023-02-24T11:07:26.759Z,22.28
2023-02-24T11:10:12.530Z,22.35
2023-02-24T11:13:10.217Z,22.44
2023-02-24T11:16:12.196Z,22.51
2023-02-24T11:18:53.751Z,22.46
2023-02-24T11:21:27.200Z,22.49
2023-02-24T11:24:03.975Z,22.53
2023-02-24T11:26:42.471Z,22.58
2023-02-24T11:29:41.183Z,22.67
2023-02-24T11:32:19.841Z,22.73
2023-02-24T11:34:52.878Z,22.87
2023-02-24T11:37:40.599Z,23.01
2023-02-24T11:40:40.516Z,23.11
2023-02-24T11:43:38.289Z,23.12
2023-02-24T11:46:21.242Z,23.12
2023-02-24T11:49:01.053Z,23.13
2023-02-24T11:51:38.358Z,23.10
2023-02-24T11:54:16.449Z,22.99
2023-02-24T11:57:00.519Z,23.05
2023-02-24T11:59:46.435Z,23.09
2023-02-24T12:02:54.015Z,23.09
2023-02-24T12:05:38.085Z,23.18
2023-02-24T12:08:11.201Z,23.03
2023-02-24T12:10:48.554Z,23.02
2023-02-24T12:13:37.099Z,22.97
2023-02-24T12:16:13.122Z,22.98
2023-02-24T12:19:03.912Z,22.98
2023-02-24T12:21:37.442Z,23.05
2023-02-24T12:24:13.390Z,23.14
2023-02-24T12:27:00.098Z,23.01
2023-02-24T12:29:43.668Z,23.13
2023-02-24T12:32:48.102Z,23.52
2023-02-24T12:35:22.782Z,23.78
2023-02-24T12:38:00.328Z,23.92
2023-02-24T12:40:58.038Z,24.17
2023-02-24T12:43:33.731Z,24.50
2023-02-24T12:46:11.154Z,24.66
2023-02-24T12:48:53.084Z,24.69
2023-02-24T12:51:35.181Z,24.81
2023-02-24T12:54:17.280Z,24.79
2023-02-24T12:57:14.244Z,24.86
2023-02-24T12:59:45.251Z,24.77
2023-02-24T13:02:29.096Z,24.79
2023-02-24T13:05:10.833Z,24.65
2023-02-24T13:07:41.262Z,24.64
2023-02-24T13:10:21.131Z,24.71
2023-02-24T13:13:14.362Z,24.67
2023-02-24T13:15:59.014Z,24.54
2023-02-24T13:18:35.873Z,24.39
2023-02-24T13:21:11.925Z,24.28
2023-02-24T13:23:53.276Z,24.17
2023-02-24T13:26:27.894Z,24.13
2023-02-24T13:29:18.181Z,24.27
2023-02-24T13:31:53.061Z,24.32
2023-02-24T13:34:54.694Z,24.63
2023-02-24T13:37:40.817Z,24.86
2023-02-24T13:40:30.100Z,25.19
2023-02-24T13:43:02.755Z,25.72
2023-02-24T13:45:37.491Z,26.13
2023-02-24T13:48:22.399Z,26.56
2023-02-24T13:51:17.820Z,26.91
2023-02-24T13:54:08.804Z,27.81
2023-02-24T13:56:53.187Z,27.94
2023-02-24T13:59:49.150Z,28.35
2023-02-24T14:02:23.649Z,28.72
2023-02-24T14:04:56.486Z,28.92
2023-02-24T14:07:35.946Z,28.50
2023-02-24T14:10:34.372Z,28.47
2023-02-24T14:13:19.558Z,28.88
2023-02-24T14:15:50.163Z,29.22
2023-02-24T14:18:23.869Z,29.71
2023-02-24T14:20:55.751Z,30.39
2023-02-24T14:23:27.786Z,30.49
2023-02-24T14:26:03.946Z,30.62
2023-02-24T14:28:40.743Z,30.20
2023-02-24T14:31:14.419Z,29.65
2023-02-24T14:33:46.892Z,29.86
2023-02-24T14:36:20.584Z,29.88
2023-02-24T14:39:11.039Z,30.13
2023-02-24T14:41:41.177Z,30.56
2023-02-24T14:44:30.951Z,31.45
2023-02-24T14:47:04.797Z,32.05
2023-02-24T14:49:37.164Z,31.19
2023-02-24T14:52:09.368Z,30.76
2023-02-24T14:54:57.000Z,30.72
2023-02-24T14:57:31.906Z,30.76
2023-02-24T15:00:13.605Z,31.05
2023-02-24T15:02:50.120Z,31.04
2023-02-24T15:05:20.856Z,30.86
2023-02-24T15:07:51.992Z,30.81
2023-02-24T15:10:26.933Z,30.81
2023-02-24T15:13:16.548Z,30.84
2023-02-24T15:15:47.585Z,30.98
2023-02-24T15:18:27.615Z,30.79
2023-02-24T15:21:06.525Z,30.62
2023-02-24T15:23:40.037Z,30.99
2023-02-24T15:26:31.070Z,31.33
2023-02-24T15:29:03.311Z,31.72
2023-02-24T15:31:33.999Z,32.14
2023-02-24T15:34:04.830Z,32.19
2023-02-24T15:36:37.727Z,32.64
2023-02-24T15:39:12.905Z,32.98
2023-02-24T15:41:46.314Z,32.65
2023-02-24T15:44:52.279Z,33.23
2023-02-24T15:47:28.693Z,32.77
2023-02-24T15:49:58.928Z,32.09
2023-02-24T15:52:30.587Z,32.21
2023-02-24T15:55:03.613Z,32.74
2023-02-24T15:57:35.446Z,32.93
2023-02-24T16:00:15.835Z,33.09
2023-02-24T16:02:46.584Z,32.73
2023-02-24T16:05:17.633Z,32.08
2023-02-24T16:07:49.310Z,32.26
2023-02-24T16:10:28.792Z,32.37
2023-02-24T16:13:01.649Z,31.89
2023-02-24T16:15:43.910Z,31.96
2023-02-24T16:18:22.079Z,31.68
2023-02-24T16:20:57.948Z,31.88
2023-02-24T16:23:28.932Z,31.84
2023-02-24T16:26:01.076Z,31.66
2023-02-24T16:28:33.792Z,31.33
2023-02-24T16:31:04.474Z,30.89
2023-02-24T16:33:51.933Z,30.60
2023-02-24T16:36:26.772Z,30.39
2023-02-24T16:38:57.232Z,30.05
2023-02-24T16:41:28.401Z,30.28
2023-02-24T16:43:59.306Z,30.16
2023-02-24T16:46:36.778Z,30.24
2023-02-24T16:49:09.946Z,30.42
2023-02-24T16:51:41.644Z,30.22
2023-02-24T16:54:11.523Z,30.22
2023-02-24T16:56:41.710Z,30.18
2023-02-24T16:59:11.486Z,30.29
2023-02-24T17:01:41.406Z,30.36
2023-02-24T17:04:12.691Z,30.47
2023-02-24T17:06:46.126Z,30.55
2023-02-24T17:09:16.787Z,30.64
2023-02-24T17:11:47.018Z,30.67
2023-02-24T17:14:22.321Z,31.01
2023-02-24T17:16:52.067Z,31.31
2023-02-24T17:19:22.417Z,31.09
2023-02-24T17:21:52.179Z,30.93
2023-02-24T17:24:23.536Z,30.94
2023-02-24T17:26:53.501Z,31.31
2023-02-24T17:29:23.799Z,31.44
2023-02-24T17:31:53.561Z,31.31
2023-02-24T17:34:25.386Z,31.00
2023-02-24T17:36:55.204Z,31.14
2023-02-24T17:39:25.430Z,30.74
2023-02-24T17:41:55.168Z,30.51
2023-02-24T17:44:25.142Z,30.66
2023-02-24T17:46:55.657Z,30.61
2023-02-24T17:49:25.628Z,30.59
2023-02-24T17:51:56.438Z,30.90
2023-02-24T17:54:26.426Z,31.01
2023-02-24T17:56:56.584Z,31.14
2023-02-24T17:59:26.414Z,30.84
2023-02-24T18:01:56.213Z,30.70
2023-02-24T18:04:26.404Z,30.81
2023-02-24T18:06:56.333Z,31.04
2023-02-24T18:09:27.230Z,31.55
2023-02-24T18:11:57.162Z,31.87
2023-02-24T18:14:28.612Z,32.36
2023-02-24T18:16:58.708Z,32.85
2023-02-24T18:19:29.022Z,33.31
2023-02-24T18:21:58.779Z,33.50
2023-02-24T18:24:29.426Z,33.65
2023-02-24T18:26:59.180Z,33.92
2023-02-24T18:29:29.980Z,34.47
2023-02-24T18:32:00.025Z,34.76
2023-02-24T18:34:30.989Z,35.00
2023-02-24T18:37:01.676Z,34.98
2023-02-24T18:39:32.050Z,35.35
2023-02-24T18:42:01.954Z,35.46
2023-02-24T18:44:32.310Z,35.58
2023-02-24T18:47:02.133Z,35.89
2023-02-24T18:49:32.344Z,35.79
2023-02-24T18:52:06.447Z,35.93
2023-02-24T18:54:36.681Z,35.87
2023-02-24T18:57:06.659Z,35.79
2023-02-24T18:59:36.901Z,35.57
2023-02-24T19:02:06.624Z,35.28
2023-02-24T19:04:36.420Z,35.06
2023-02-24T19:07:06.772Z,34.21
2023-02-24T19:09:36.682Z,33.71
2023-02-24T19:12:07.396Z,33.71
2023-02-24T19:14:38.380Z,33.50
2023-02-24T19:17:08.623Z,33.35
2023-02-24T19:19:38.536Z,33.10
2023-02-24T19:22:08.671Z,32.87
2023-02-24T19:24:38.622Z,32.76
2023-02-24T19:27:09.812Z,32.58
2023-02-24T19:29:39.584Z,32.54
2023-02-24T19:32:09.995Z,32.31
2023-02-24T19:34:40.019Z,32.64
2023-02-24T19:37:09.711Z,32.68
2023-02-24T19:39:40.083Z,32.78
2023-02-24T19:42:10.655Z,32.42
2023-02-24T19:44:41.816Z,33.20
2023-02-24T19:47:11.652Z,33.49
2023-02-24T19:49:41.871Z,33.68
2023-02-24T19:52:11.989Z,33.66
2023-02-24T19:54:42.210Z,33.47
2023-02-24T19:57:12.083Z,32.99
2023-02-24T19:59:42.430Z,31.90
2023-02-24T20:02:12.540Z,31.75
2023-02-24T20:04:42.854Z,32.15
2023-02-24T20:07:12.969Z,32.26
2023-02-24T20:09:44.344Z,32.44
2023-02-24T20:12:14.186Z,32.83
2023-02-24T20:14:44.456Z,32.84
2023-02-24T20:17:13.914Z,32.31
2023-02-24T20:19:43.876Z,32.86
2023-02-24T20:22:14.189Z,33.19
2023-02-24T20:24:44.362Z,33.72
2023-02-24T20:27:14.789Z,33.95
2023-02-24T20:29:44.532Z,34.09
2023-02-24T20:32:14.894Z,34.22
2023-02-24T20:34:45.104Z,34.03
2023-02-24T20:37:15.322Z,33.58
2023-02-24T20:39:45.195Z,33.05
2023-02-24T20:42:16.206Z,32.47
2023-02-24T20:44:46.107Z,32.13
2023-02-24T20:47:18.227Z,31.79
2023-02-24T20:49:49.101Z,31.09
2023-02-24T20:52:19.458Z,30.69
2023-02-24T20:54:49.241Z,30.52
2023-02-24T20:57:19.395Z,30.65
2023-02-24T21:00:02.589Z,31.02
2023-02-24T21:02:33.426Z,31.36
2023-02-24T21:05:03.071Z,31.58
2023-02-24T21:07:33.228Z,31.59
2023-02-24T21:10:03.427Z,31.44
2023-02-24T21:12:33.045Z,31.61
2023-02-24T21:15:02.796Z,31.59
2023-02-24T21:17:35.333Z,31.59
2023-02-24T21:20:05.528Z,31.46
2023-02-24T21:22:35.693Z,31.21
2023-02-24T21:25:05.650Z,31.01
2023-02-24T21:27:35.944Z,30.62
2023-02-24T21:30:08.031Z,30.54
2023-02-24T21:32:38.297Z,30.21
2023-02-24T21:35:08.118Z,30.11
2023-02-24T21:37:38.377Z,30.07
2023-02-24T21:40:14.706Z,29.92
2023-02-24T21:42:48.134Z,29.71
2023-02-24T21:45:20.293Z,29.55
2023-02-24T21:47:51.009Z,29.34
2023-02-24T21:50:20.870Z,28.97
2023-02-24T21:52:51.078Z,28.77
2023-02-24T21:55:21.216Z,28.52
2023-02-24T21:57:51.470Z,27.97
2023-02-24T22:00:21.652Z,27.98
2023-02-24T22:02:55.688Z,27.82
2023-02-24T22:05:27.281Z,27.64
2023-02-24T22:07:58.191Z,27.11
2023-02-24T22:10:28.005Z,27.02
2023-02-24T22:12:58.311Z,27.08
2023-02-24T22:15:28.051Z,26.73
2023-02-24T22:17:58.185Z,26.51
2023-02-24T22:20:28.232Z,26.41
2023-02-24T22:22:58.424Z,26.48
2023-02-24T22:25:28.045Z,26.37
2023-02-24T22:27:58.338Z,26.23
2023-02-24T22:30:29.126Z,26.11
2023-02-24T22:32:59.852Z,26.20
2023-02-24T22:35:30.132Z,26.04
2023-02-24T22:37:59.950Z,25.82
2023-02-24T22:40:30.165Z,25.91
2023-02-24T22:43:00.002Z,25.94
2023-02-24T22:45:31.776Z,25.76
2023-02-24T22:48:01.752Z,25.77
2023-02-24T22:50:31.317Z,25.66
2023-02-24T22:53:01.524Z,25.54
2023-02-24T22:55:31.064Z,25.44
2023-02-24T22:58:00.903Z,25.28
2023-02-24T23:00:31.305Z,25.07
2023-02-24T23:03:01.109Z,25.02
2023-02-24T23:05:31.507Z,24.94
2023-02-24T23:08:04.542Z,24.85
2023-02-24T23:10:35.413Z,24.63
2023-02-24T23:13:05.292Z,24.41
2023-02-24T23:15:40.139Z,24.24
2023-02-24T23:18:10.210Z,24.17
2023-02-24T23:20:40.468Z,24.12
2023-02-24T23:23:11.979Z,24.08
2023-02-24T23:25:43.264Z,23.85
2023-02-24T23:28:13.057Z,23.77
2023-02-24T23:30:43.304Z,23.73
2023-02-24T23:33:13.324Z,23.67
2023-02-24T23:35:43.777Z,23.62
2023-02-24T23:38:14.037Z,23.58
2023-02-24T23:40:51.055Z,23.53
2023-02-24T23:43:21.011Z,23.51
2023-02-24T23:45:51.112Z,23.69
2023-02-24T23:48:22.709Z,23.69
2023-02-24T23:50:56.560Z,23.68
2023-02-24T23:53:27.469Z,23.69
2023-02-24T23:55:58.813Z,23.62
2023-02-24T23:58:29.255Z,23.58
